sensor_id;sensor_type;location;lat;lon;timestamp;temperature;humidity
45849;DHT22;31567;54.600;9.842;2023-03-14T00:02:33;10.90;99.20
45849;DHT22;31567;54.600;9.842;2023-03-14T00:06:13;10.80;99.40
45849;DHT22;31567;54.600;9.842;2023-03-14T00:09:53;10.80;99.50
45849;DHT22;31567;54.600;9.842;2023-03-14T00:13:32;10.80;99.90
45849;DHT22;31567;54.600;9.842;2023-03-14T00:17:12;10.80;99.90
45849;DHT22;31567;54.600;9.842;2023-03-14T00:20:53;10.80;99.90
45849;DHT22;31567;54.600;9.842;2023-03-14T00:24:32;10.80;99.90
45849;DHT22;31567;54.600;9.842;2023-03-14T00:28:12;10.90;99.90
45849;DHT22;31567;54.600;9.842;2023-03-14T00:31:52;10.90;99.90
45849;DHT22;31567;54.600;9.842;2023-03-14T00:35:32;10.90;99.90
45849;DHT22;31567;54.600;9.842;2023-03-14T00:39:12;10.90;99.90
45849;DHT22;31567;54.600;9.842;2023-03-14T00:42:51;10.90;99.90
45849;DHT22;31567;54.600;9.842;2023-03-14T00:46:31;11.00;99.90
45849;DHT22;31567;54.600;9.842;2023-03-14T00:50:11;11.00;99.90
45849;DHT22;31567;54.600;9.842;2023-03-14T00:53:50;11.00;99.90
45849;DHT22;31567;54.600;9.842;2023-03-14T00:57:30;10.90;99.90
45849;DHT22;31567;54.600;9.842;2023-03-14T01:01:12;10.90;99.90
45849;DHT22;31567;54.600;9.842;2023-03-14T01:04:52;10.90;99.90
45849;DHT22;31567;54.600;9.842;2023-03-14T01:08:32;10.90;99.90
45849;DHT22;31567;54.600;9.842;2023-03-14T01:12:11;11.00;99.90
45849;DHT22;31567;54.600;9.842;2023-03-14T01:15:51;11.00;99.90
45849;DHT22;31567;54.600;9.842;2023-03-14T01:19:30;11.00;99.90
45849;DHT22;31567;54.600;9.842;2023-03-14T01:23:10;11.00;99.90
45849;DHT22;31567;54.600;9.842;2023-03-14T01:26:50;11.00;99.90
45849;DHT22;31567;54.600;9.842;2023-03-14T01:30:29;11.00;99.90
45849;DHT22;31567;54.600;9.842;2023-03-14T01:34:09;11.00;99.90
45849;DHT22;31567;54.600;9.842;2023-03-14T01:37:49;11.10;99.90
45849;DHT22;31567;54.600;9.842;2023-03-14T01:41:28;11.00;99.90
45849;DHT22;31567;54.600;9.842;2023-03-14T01:49:36;11.00;99.90
45849;DHT22;31567;54.600;9.842;2023-03-14T01:53:15;11.00;99.90
45849;DHT22;31567;54.600;9.842;2023-03-14T01:56:59;11.00;99.90
45849;DHT22;31567;54.600;9.842;2023-03-14T02:00:41;11.00;99.90
45849;DHT22;31567;54.600;9.842;2023-03-14T02:04:21;11.00;99.90
45849;DHT22;31567;54.600;9.842;2023-03-14T02:08:02;11.00;99.90
45849;DHT22;31567;54.600;9.842;2023-03-14T02:11:45;11.00;99.90
45849;DHT22;31567;54.600;9.842;2023-03-14T02:15:25;11.00;99.90
45849;DHT22;31567;54.600;9.842;2023-03-14T02:19:05;11.10;99.90
45849;DHT22;31567;54.600;9.842;2023-03-14T02:22:46;11.00;99.90
45849;DHT22;31567;54.600;9.842;2023-03-14T02:26:38;11.00;99.90
45849;DHT22;31567;54.600;9.842;2023-03-14T02:30:25;10.90;99.90
45849;DHT22;31567;54.600;9.842;2023-03-14T02:34:06;10.90;99.90
45849;DHT22;31567;54.600;9.842;2023-03-14T02:37:59;10.80;99.90
45849;DHT22;31567;54.600;9.842;2023-03-14T02:41:40;10.80;99.90
45849;DHT22;31567;54.600;9.842;2023-03-14T02:49:06;10.80;99.90
45849;DHT22;31567;54.600;9.842;2023-03-14T02:52:46;10.80;99.90
45849;DHT22;31567;54.600;9.842;2023-03-14T02:56:26;10.80;99.90
45849;DHT22;31567;54.600;9.842;2023-03-14T03:00:06;10.70;99.90
45849;DHT22;31567;54.600;9.842;2023-03-14T03:03:47;10.80;99.90
45849;DHT22;31567;54.600;9.842;2023-03-14T03:07:26;10.70;99.90
45849;DHT22;31567;54.600;9.842;2023-03-14T03:11:06;10.60;99.90
45849;DHT22;31567;54.600;9.842;2023-03-14T03:14:46;10.50;99.90
45849;DHT22;31567;54.600;9.842;2023-03-14T03:18:25;10.50;99.90
45849;DHT22;31567;54.600;9.842;2023-03-14T03:22:05;10.50;99.90
45849;DHT22;31567;54.600;9.842;2023-03-14T03:25:48;10.40;99.90
45849;DHT22;31567;54.600;9.842;2023-03-14T03:29:28;10.50;99.90
45849;DHT22;31567;54.600;9.842;2023-03-14T03:33:08;10.50;99.90
45849;DHT22;31567;54.600;9.842;2023-03-14T03:36:48;10.40;99.90
45849;DHT22;31567;54.600;9.842;2023-03-14T03:40:27;10.50;99.90
45849;DHT22;31567;54.600;9.842;2023-03-14T03:44:07;10.60;99.90
45849;DHT22;31567;54.600;9.842;2023-03-14T03:47:47;10.70;99.90
45849;DHT22;31567;54.600;9.842;2023-03-14T03:51:26;10.70;99.90
45849;DHT22;31567;54.600;9.842;2023-03-14T03:55:06;10.70;99.90
45849;DHT22;31567;54.600;9.842;2023-03-14T03:58:46;10.80;99.90
45849;DHT22;31567;54.600;9.842;2023-03-14T04:02:25;10.80;99.90
45849;DHT22;31567;54.600;9.842;2023-03-14T04:06:08;10.90;99.90
45849;DHT22;31567;54.600;9.842;2023-03-14T04:09:48;11.00;99.90
45849;DHT22;31567;54.600;9.842;2023-03-14T04:13:28;10.90;99.90
45849;DHT22;31567;54.600;9.842;2023-03-14T04:17:08;11.00;99.90
45849;DHT22;31567;54.600;9.842;2023-03-14T04:20:54;11.00;99.90
45849;DHT22;31567;54.600;9.842;2023-03-14T04:24:34;10.90;99.90
45849;DHT22;31567;54.600;9.842;2023-03-14T04:28:14;10.80;99.90
45849;DHT22;31567;54.600;9.842;2023-03-14T04:31:53;10.90;99.90
45849;DHT22;31567;54.600;9.842;2023-03-14T04:35:34;10.90;99.90
45849;DHT22;31567;54.600;9.842;2023-03-14T04:39:14;10.90;99.90
45849;DHT22;31567;54.600;9.842;2023-03-14T04:42:53;10.70;99.90
45849;DHT22;31567;54.600;9.842;2023-03-14T04:46:33;10.70;99.90
45849;DHT22;31567;54.600;9.842;2023-03-14T04:50:12;10.70;99.90
45849;DHT22;31567;54.600;9.842;2023-03-14T04:53:52;10.70;99.90
45849;DHT22;31567;54.600;9.842;2023-03-14T04:57:31;10.70;99.90
45849;DHT22;31567;54.600;9.842;2023-03-14T05:01:11;10.70;99.90
45849;DHT22;31567;54.600;9.842;2023-03-14T05:04:50;10.70;99.90
45849;DHT22;31567;54.600;9.842;2023-03-14T05:08:30;10.80;99.90
45849;DHT22;31567;54.600;9.842;2023-03-14T05:12:10;10.80;99.90
45849;DHT22;31567;54.600;9.842;2023-03-14T05:15:50;10.80;99.90
45849;DHT22;31567;54.600;9.842;2023-03-14T05:19:35;10.70;99.90
45849;DHT22;31567;54.600;9.842;2023-03-14T05:23:14;10.70;99.90
45849;DHT22;31567;54.600;9.842;2023-03-14T05:26:54;10.70;99.90
45849;DHT22;31567;54.600;9.842;2023-03-14T05:30:33;10.70;99.90
45849;DHT22;31567;54.600;9.842;2023-03-14T05:34:13;10.70;99.90
45849;DHT22;31567;54.600;9.842;2023-03-14T05:37:52;10.60;99.90
45849;DHT22;31567;54.600;9.842;2023-03-14T05:41:32;10.60;99.90
45849;DHT22;31567;54.600;9.842;2023-03-14T05:45:11;10.60;99.90
45849;DHT22;31567;54.600;9.842;2023-03-14T05:48:51;10.70;99.90
45849;DHT22;31567;54.600;9.842;2023-03-14T05:52:31;10.60;99.90
45849;DHT22;31567;54.600;9.842;2023-03-14T05:56:10;10.60;99.90
45849;DHT22;31567;54.600;9.842;2023-03-14T05:59:50;10.60;99.90
45849;DHT22;31567;54.600;9.842;2023-03-14T06:03:29;10.60;99.90
45849;DHT22;31567;54.600;9.842;2023-03-14T06:07:09;10.60;99.90
45849;DHT22;31567;54.600;9.842;2023-03-14T06:10:48;10.60;99.90
45849;DHT22;31567;54.600;9.842;2023-03-14T06:14:28;10.40;99.90
45849;DHT22;31567;54.600;9.842;2023-03-14T06:18:07;10.40;99.90
45849;DHT22;31567;54.600;9.842;2023-03-14T06:21:47;10.30;99.90
45849;DHT22;31567;54.600;9.842;2023-03-14T06:25:27;10.20;99.90
45849;DHT22;31567;54.600;9.842;2023-03-14T06:29:06;10.10;99.90
45849;DHT22;31567;54.600;9.842;2023-03-14T06:32:46;10.00;99.90
45849;DHT22;31567;54.600;9.842;2023-03-14T06:36:25;10.00;99.90
45849;DHT22;31567;54.600;9.842;2023-03-14T06:40:05;10.00;99.90
45849;DHT22;31567;54.600;9.842;2023-03-14T06:43:46;9.90;99.90
45849;DHT22;31567;54.600;9.842;2023-03-14T06:47:26;9.80;99.90
45849;DHT22;31567;54.600;9.842;2023-03-14T06:51:05;9.80;99.90
45849;DHT22;31567;54.600;9.842;2023-03-14T06:54:45;9.80;99.90
45849;DHT22;31567;54.600;9.842;2023-03-14T06:58:25;9.80;99.90
45849;DHT22;31567;54.600;9.842;2023-03-14T07:02:07;9.80;99.90
45849;DHT22;31567;54.600;9.842;2023-03-14T07:05:47;9.80;99.90
45849;DHT22;31567;54.600;9.842;2023-03-14T07:09:26;9.80;99.90
45849;DHT22;31567;54.600;9.842;2023-03-14T07:13:06;9.80;99.90
45849;DHT22;31567;54.600;9.842;2023-03-14T07:16:45;9.80;99.90
45849;DHT22;31567;54.600;9.842;2023-03-14T07:20:25;9.80;99.90
45849;DHT22;31567;54.600;9.842;2023-03-14T07:24:05;9.80;99.90
45849;DHT22;31567;54.600;9.842;2023-03-14T07:27:45;9.80;99.90
45849;DHT22;31567;54.600;9.842;2023-03-14T07:31:25;9.70;99.90
45849;DHT22;31567;54.600;9.842;2023-03-14T07:35:05;9.80;99.90
45849;DHT22;31567;54.600;9.842;2023-03-14T07:38:45;9.80;99.90
45849;DHT22;31567;54.600;9.842;2023-03-14T07:42:24;9.70;99.90
45849;DHT22;31567;54.600;9.842;2023-03-14T07:46:04;9.70;99.90
45849;DHT22;31567;54.600;9.842;2023-03-14T07:49:43;9.80;99.90
45849;DHT22;31567;54.600;9.842;2023-03-14T07:53:24;9.80;99.90
45849;DHT22;31567;54.600;9.842;2023-03-14T07:57:04;9.80;99.90
45849;DHT22;31567;54.600;9.842;2023-03-14T08:00:43;9.80;99.90
45849;DHT22;31567;54.600;9.842;2023-03-14T08:04:23;9.60;99.90
45849;DHT22;31567;54.600;9.842;2023-03-14T08:08:03;8.70;99.90
45849;DHT22;31567;54.600;9.842;2023-03-14T08:11:43;8.50;99.90
45849;DHT22;31567;54.600;9.842;2023-03-14T08:15:23;8.00;99.90
45849;DHT22;31567;54.600;9.842;2023-03-14T08:19:03;7.70;99.90
45849;DHT22;31567;54.600;9.842;2023-03-14T08:22:43;7.50;99.90
45849;DHT22;31567;54.600;9.842;2023-03-14T08:26:22;7.30;99.90
45849;DHT22;31567;54.600;9.842;2023-03-14T08:30:02;6.90;99.90
45849;DHT22;31567;54.600;9.842;2023-03-14T08:33:42;6.50;99.90
45849;DHT22;31567;54.600;9.842;2023-03-14T08:37:22;6.20;99.90
45849;DHT22;31567;54.600;9.842;2023-03-14T08:41:03;5.90;99.90
45849;DHT22;31567;54.600;9.842;2023-03-14T08:44:44;5.80;99.90
45849;DHT22;31567;54.600;9.842;2023-03-14T08:48:24;5.70;99.90
45849;DHT22;31567;54.600;9.842;2023-03-14T08:52:04;5.30;99.90
45849;DHT22;31567;54.600;9.842;2023-03-14T08:55:43;5.20;99.90
45849;DHT22;31567;54.600;9.842;2023-03-14T08:59:23;4.80;99.90
45849;DHT22;31567;54.600;9.842;2023-03-14T09:03:03;4.80;99.90
45849;DHT22;31567;54.600;9.842;2023-03-14T09:06:43;4.70;99.90
45849;DHT22;31567;54.600;9.842;2023-03-14T09:10:22;4.70;99.90
45849;DHT22;31567;54.600;9.842;2023-03-14T09:14:02;4.60;99.90
45849;DHT22;31567;54.600;9.842;2023-03-14T09:17:43;4.60;99.90
45849;DHT22;31567;54.600;9.842;2023-03-14T09:21:22;4.60;99.90
45849;DHT22;31567;54.600;9.842;2023-03-14T09:25:06;4.60;99.90
45849;DHT22;31567;54.600;9.842;2023-03-14T09:28:45;4.50;99.90
45849;DHT22;31567;54.600;9.842;2023-03-14T09:32:25;4.40;99.90
45849;DHT22;31567;54.600;9.842;2023-03-14T09:36:05;4.50;99.90
45849;DHT22;31567;54.600;9.842;2023-03-14T09:39:45;4.50;99.90
45849;DHT22;31567;54.600;9.842;2023-03-14T09:43:25;4.50;99.90
45849;DHT22;31567;54.600;9.842;2023-03-14T09:47:12;4.70;99.90
45849;DHT22;31567;54.600;9.842;2023-03-14T09:50:55;4.70;99.90
45849;DHT22;31567;54.600;9.842;2023-03-14T09:54:39;4.80;99.90
45849;DHT22;31567;54.600;9.842;2023-03-14T09:58:22;4.80;99.90
45849;DHT22;31567;54.600;9.842;2023-03-14T10:02:14;4.90;99.90
45849;DHT22;31567;54.600;9.842;2023-03-14T10:05:54;4.80;99.90
45849;DHT22;31567;54.600;9.842;2023-03-14T10:09:35;4.70;99.90
45849;DHT22;31567;54.600;9.842;2023-03-14T10:17:06;4.90;99.90
45849;DHT22;31567;54.600;9.842;2023-03-14T10:20:48;5.00;99.90
45849;DHT22;31567;54.600;9.842;2023-03-14T10:24:35;5.10;99.90
45849;DHT22;31567;54.600;9.842;2023-03-14T10:28:31;5.00;99.90
45849;DHT22;31567;54.600;9.842;2023-03-14T10:32:19;5.00;99.90
45849;DHT22;31567;54.600;9.842;2023-03-14T10:36:20;5.30;99.90
45849;DHT22;31567;54.600;9.842;2023-03-14T10:40:02;5.40;99.90
45849;DHT22;31567;54.600;9.842;2023-03-14T10:43:45;5.50;99.90
45849;DHT22;31567;54.600;9.842;2023-03-14T10:47:29;5.60;99.90
45849;DHT22;31567;54.600;9.842;2023-03-14T10:55:03;5.80;99.90
45849;DHT22;31567;54.600;9.842;2023-03-14T10:58:44;5.90;99.90
45849;DHT22;31567;54.600;9.842;2023-03-14T11:02:58;6.10;99.90
45849;DHT22;31567;54.600;9.842;2023-03-14T11:07:24;6.20;99.90
45849;DHT22;31567;54.600;9.842;2023-03-14T11:23:17;6.60;99.90
45849;DHT22;31567;54.600;9.842;2023-03-14T11:27:09;6.80;99.90
45849;DHT22;31567;54.600;9.842;2023-03-14T11:31:20;6.90;99.90
45849;DHT22;31567;54.600;9.842;2023-03-14T11:35:14;7.00;99.90
45849;DHT22;31567;54.600;9.842;2023-03-14T11:38:57;7.00;99.90
45849;DHT22;31567;54.600;9.842;2023-03-14T11:42:38;7.00;99.90
45849;DHT22;31567;54.600;9.842;2023-03-14T11:46:23;6.60;99.90
45849;DHT22;31567;54.600;9.842;2023-03-14T11:50:26;6.30;99.90
45849;DHT22;31567;54.600;9.842;2023-03-14T11:58:26;6.30;99.90
45849;DHT22;31567;54.600;9.842;2023-03-14T12:09:45;6.60;99.90
45849;DHT22;31567;54.600;9.842;2023-03-14T12:13:29;6.60;99.00
45849;DHT22;31567;54.600;9.842;2023-03-14T12:21:03;6.70;98.40
45849;DHT22;31567;54.600;9.842;2023-03-14T12:24:57;6.70;97.80
45849;DHT22;31567;54.600;9.842;2023-03-14T12:28:42;6.70;96.30
45849;DHT22;31567;54.600;9.842;2023-03-14T12:32:24;6.70;96.30
45849;DHT22;31567;54.600;9.842;2023-03-14T12:36:05;6.70;94.80
45849;DHT22;31567;54.600;9.842;2023-03-14T12:43:35;7.00;96.10
45849;DHT22;31567;54.600;9.842;2023-03-14T12:51:04;7.00;92.50
45849;DHT22;31567;54.600;9.842;2023-03-14T12:55:06;7.00;92.30
45849;DHT22;31567;54.600;9.842;2023-03-14T12:59:24;7.00;91.60
45849;DHT22;31567;54.600;9.842;2023-03-14T13:03:22;7.00;91.10
45849;DHT22;31567;54.600;9.842;2023-03-14T13:11:15;7.00;90.20
45849;DHT22;31567;54.600;9.842;2023-03-14T13:14:58;7.00;91.20
45849;DHT22;31567;54.600;9.842;2023-03-14T13:18:46;7.00;90.50
45849;DHT22;31567;54.600;9.842;2023-03-14T13:22:29;6.80;88.00
45849;DHT22;31567;54.600;9.842;2023-03-14T13:26:13;6.90;88.90
45849;DHT22;31567;54.600;9.842;2023-03-14T13:29:53;6.90;85.80
45849;DHT22;31567;54.600;9.842;2023-03-14T13:33:33;6.90;85.20
45849;DHT22;31567;54.600;9.842;2023-03-14T13:37:19;6.90;86.80
45849;DHT22;31567;54.600;9.842;2023-03-14T13:41:03;6.90;85.50
45849;DHT22;31567;54.600;9.842;2023-03-14T13:44:43;6.80;85.70
45849;DHT22;31567;54.600;9.842;2023-03-14T13:48:27;6.70;87.40
45849;DHT22;31567;54.600;9.842;2023-03-14T13:52:36;6.80;88.30
45849;DHT22;31567;54.600;9.842;2023-03-14T13:56:18;6.80;89.00
45849;DHT22;31567;54.600;9.842;2023-03-14T14:00:05;6.90;90.40
45849;DHT22;31567;54.600;9.842;2023-03-14T14:03:49;7.00;90.60
45849;DHT22;31567;54.600;9.842;2023-03-14T14:07:30;7.10;90.10
45849;DHT22;31567;54.600;9.842;2023-03-14T14:11:14;7.30;90.40
45849;DHT22;31567;54.600;9.842;2023-03-14T14:15:06;7.40;90.10
45849;DHT22;31567;54.600;9.842;2023-03-14T14:18:47;7.50;90.10
45849;DHT22;31567;54.600;9.842;2023-03-14T14:22:27;7.80;89.90
45849;DHT22;31567;54.600;9.842;2023-03-14T14:26:06;7.80;88.00
45849;DHT22;31567;54.600;9.842;2023-03-14T14:30:01;7.80;85.50
45849;DHT22;31567;54.600;9.842;2023-03-14T14:33:43;7.90;86.00
45849;DHT22;31567;54.600;9.842;2023-03-14T14:37:31;7.90;82.90
45849;DHT22;31567;54.600;9.842;2023-03-14T14:41:11;7.80;81.50
45849;DHT22;31567;54.600;9.842;2023-03-14T14:44:52;7.70;83.60
45849;DHT22;31567;54.600;9.842;2023-03-14T14:48:36;7.70;81.10
45849;DHT22;31567;54.600;9.842;2023-03-14T14:52:19;7.80;80.70
45849;DHT22;31567;54.600;9.842;2023-03-14T14:56:04;7.60;83.00
45849;DHT22;31567;54.600;9.842;2023-03-14T14:59:48;7.60;82.60
45849;DHT22;31567;54.600;9.842;2023-03-14T15:03:30;7.50;85.20
45849;DHT22;31567;54.600;9.842;2023-03-14T15:07:10;7.50;86.30
45849;DHT22;31567;54.600;9.842;2023-03-14T15:10:50;7.60;86.40
45849;DHT22;31567;54.600;9.842;2023-03-14T15:14:29;7.60;85.70
45849;DHT22;31567;54.600;9.842;2023-03-14T15:18:15;7.50;84.10
45849;DHT22;31567;54.600;9.842;2023-03-14T15:21:54;7.40;82.80
45849;DHT22;31567;54.600;9.842;2023-03-14T15:25:34;7.30;82.70
45849;DHT22;31567;54.600;9.842;2023-03-14T15:29:14;7.40;79.70
45849;DHT22;31567;54.600;9.842;2023-03-14T15:32:53;7.70;83.00
45849;DHT22;31567;54.600;9.842;2023-03-14T15:36:34;7.90;83.40
45849;DHT22;31567;54.600;9.842;2023-03-14T15:40:15;8.00;82.70
45849;DHT22;31567;54.600;9.842;2023-03-14T15:43:55;7.90;82.80
45849;DHT22;31567;54.600;9.842;2023-03-14T15:47:34;7.90;83.40
45849;DHT22;31567;54.600;9.842;2023-03-14T15:51:14;7.70;83.20
45849;DHT22;31567;54.600;9.842;2023-03-14T15:54:54;7.60;82.70
45849;DHT22;31567;54.600;9.842;2023-03-14T15:58:34;7.40;82.10
45849;DHT22;31567;54.600;9.842;2023-03-14T16:02:13;7.20;82.30
45849;DHT22;31567;54.600;9.842;2023-03-14T16:05:53;7.20;82.40
45849;DHT22;31567;54.600;9.842;2023-03-14T16:09:32;7.10;81.90
45849;DHT22;31567;54.600;9.842;2023-03-14T16:13:12;6.90;81.70
45849;DHT22;31567;54.600;9.842;2023-03-14T16:16:52;7.00;83.00
45849;DHT22;31567;54.600;9.842;2023-03-14T16:20:32;6.90;83.10
45849;DHT22;31567;54.600;9.842;2023-03-14T16:24:12;6.90;82.80
45849;DHT22;31567;54.600;9.842;2023-03-14T16:27:51;6.70;84.00
45849;DHT22;31567;54.600;9.842;2023-03-14T16:31:31;6.50;85.30
45849;DHT22;31567;54.600;9.842;2023-03-14T16:35:10;6.30;86.10
45849;DHT22;31567;54.600;9.842;2023-03-14T16:38:50;6.20;87.40
45849;DHT22;31567;54.600;9.842;2023-03-14T16:42:29;6.10;88.60
45849;DHT22;31567;54.600;9.842;2023-03-14T16:46:15;6.10;89.60
45849;DHT22;31567;54.600;9.842;2023-03-14T16:49:55;6.00;90.30
45849;DHT22;31567;54.600;9.842;2023-03-14T16:53:35;6.00;90.80
45849;DHT22;31567;54.600;9.842;2023-03-14T16:57:14;5.90;90.40
45849;DHT22;31567;54.600;9.842;2023-03-14T17:00:54;5.70;90.00
45849;DHT22;31567;54.600;9.842;2023-03-14T17:04:39;5.70;90.20
45849;DHT22;31567;54.600;9.842;2023-03-14T17:08:19;5.70;90.50
45849;DHT22;31567;54.600;9.842;2023-03-14T17:11:59;5.70;90.50
45849;DHT22;31567;54.600;9.842;2023-03-14T17:15:42;5.70;91.00
45849;DHT22;31567;54.600;9.842;2023-03-14T17:19:22;5.70;91.50
45849;DHT22;31567;54.600;9.842;2023-03-14T17:23:02;5.50;91.50
45849;DHT22;31567;54.600;9.842;2023-03-14T17:26:41;5.10;97.60
45849;DHT22;31567;54.600;9.842;2023-03-14T17:30:21;4.50;99.90
45849;DHT22;31567;54.600;9.842;2023-03-14T17:34:01;4.20;99.90
45849;DHT22;31567;54.600;9.842;2023-03-14T17:37:40;4.10;99.90
45849;DHT22;31567;54.600;9.842;2023-03-14T17:41:20;4.00;99.90
45849;DHT22;31567;54.600;9.842;2023-03-14T17:44:59;3.90;99.90
45849;DHT22;31567;54.600;9.842;2023-03-14T17:48:40;3.80;99.90
45849;DHT22;31567;54.600;9.842;2023-03-14T17:52:20;3.70;99.90
45849;DHT22;31567;54.600;9.842;2023-03-14T17:56:00;3.70;99.90
45849;DHT22;31567;54.600;9.842;2023-03-14T17:59:39;3.70;99.90
45849;DHT22;31567;54.600;9.842;2023-03-14T18:03:21;3.70;99.90
45849;DHT22;31567;54.600;9.842;2023-03-14T18:07:00;3.70;99.90
45849;DHT22;31567;54.600;9.842;2023-03-14T18:10:40;3.80;99.90
45849;DHT22;31567;54.600;9.842;2023-03-14T18:14:20;3.80;99.90
45849;DHT22;31567;54.600;9.842;2023-03-14T18:18:00;3.70;99.90
45849;DHT22;31567;54.600;9.842;2023-03-14T18:21:42;3.70;99.90
45849;DHT22;31567;54.600;9.842;2023-03-14T18:25:22;3.70;99.90
45849;DHT22;31567;54.600;9.842;2023-03-14T18:29:02;3.70;99.90
45849;DHT22;31567;54.600;9.842;2023-03-14T18:32:42;3.80;99.90
45849;DHT22;31567;54.600;9.842;2023-03-14T18:36:22;3.80;99.90
45849;DHT22;31567;54.600;9.842;2023-03-14T18:40:01;3.80;99.90
45849;DHT22;31567;54.600;9.842;2023-03-14T18:43:43;3.80;99.90
45849;DHT22;31567;54.600;9.842;2023-03-14T18:47:24;3.80;99.90
45849;DHT22;31567;54.600;9.842;2023-03-14T18:51:05;3.80;99.90
45849;DHT22;31567;54.600;9.842;2023-03-14T18:54:44;3.80;99.90
45849;DHT22;31567;54.600;9.842;2023-03-14T18:58:24;3.90;99.90
45849;DHT22;31567;54.600;9.842;2023-03-14T19:02:08;3.80;99.90
45849;DHT22;31567;54.600;9.842;2023-03-14T19:05:47;3.80;99.90
45849;DHT22;31567;54.600;9.842;2023-03-14T19:09:27;3.80;99.90
45849;DHT22;31567;54.600;9.842;2023-03-14T19:13:06;3.80;99.90
45849;DHT22;31567;54.600;9.842;2023-03-14T19:16:46;3.80;99.90
45849;DHT22;31567;54.600;9.842;2023-03-14T19:20:26;3.80;99.90
45849;DHT22;31567;54.600;9.842;2023-03-14T19:24:06;3.80;99.90
45849;DHT22;31567;54.600;9.842;2023-03-14T19:27:45;3.80;99.90
45849;DHT22;31567;54.600;9.842;2023-03-14T19:31:25;3.80;99.90
45849;DHT22;31567;54.600;9.842;2023-03-14T19:35:05;3.80;99.90
45849;DHT22;31567;54.600;9.842;2023-03-14T19:38:45;3.80;99.90
45849;DHT22;31567;54.600;9.842;2023-03-14T19:42:24;3.80;99.90
45849;DHT22;31567;54.600;9.842;2023-03-14T19:46:04;3.80;99.90
45849;DHT22;31567;54.600;9.842;2023-03-14T19:49:44;3.90;99.90
45849;DHT22;31567;54.600;9.842;2023-03-14T19:53:23;3.80;99.90
45849;DHT22;31567;54.600;9.842;2023-03-14T19:57:03;3.90;99.90
45849;DHT22;31567;54.600;9.842;2023-03-14T20:00:43;3.80;99.90
45849;DHT22;31567;54.600;9.842;2023-03-14T20:04:24;3.80;99.90
45849;DHT22;31567;54.600;9.842;2023-03-14T20:08:04;3.80;99.90
45849;DHT22;31567;54.600;9.842;2023-03-14T20:11:44;3.80;99.90
45849;DHT22;31567;54.600;9.842;2023-03-14T20:15:23;3.80;99.90
45849;DHT22;31567;54.600;9.842;2023-03-14T20:19:08;3.80;99.90
45849;DHT22;31567;54.600;9.842;2023-03-14T20:22:48;3.80;99.90
45849;DHT22;31567;54.600;9.842;2023-03-14T20:26:28;3.80;99.90
45849;DHT22;31567;54.600;9.842;2023-03-14T20:30:10;3.80;99.90
45849;DHT22;31567;54.600;9.842;2023-03-14T20:33:51;3.80;99.90
45849;DHT22;31567;54.600;9.842;2023-03-14T20:37:30;3.80;99.90
45849;DHT22;31567;54.600;9.842;2023-03-14T20:41:11;3.80;99.90
45849;DHT22;31567;54.600;9.842;2023-03-14T20:44:50;3.80;99.90
45849;DHT22;31567;54.600;9.842;2023-03-14T20:48:30;3.70;99.90
45849;DHT22;31567;54.600;9.842;2023-03-14T20:52:11;3.80;99.90
45849;DHT22;31567;54.600;9.842;2023-03-14T20:55:54;3.80;99.90
45849;DHT22;31567;54.600;9.842;2023-03-14T20:59:34;3.80;99.90
45849;DHT22;31567;54.600;9.842;2023-03-14T21:03:15;3.80;99.90
45849;DHT22;31567;54.600;9.842;2023-03-14T21:06:54;3.80;99.90
45849;DHT22;31567;54.600;9.842;2023-03-14T21:10:34;3.90;99.90
45849;DHT22;31567;54.600;9.842;2023-03-14T21:14:14;3.90;99.90
45849;DHT22;31567;54.600;9.842;2023-03-14T21:17:56;3.90;99.90
45849;DHT22;31567;54.600;9.842;2023-03-14T21:21:36;4.00;99.90
45849;DHT22;31567;54.600;9.842;2023-03-14T21:25:16;4.00;99.90
45849;DHT22;31567;54.600;9.842;2023-03-14T21:28:55;4.00;99.90
45849;DHT22;31567;54.600;9.842;2023-03-14T21:32:35;4.00;99.90
45849;DHT22;31567;54.600;9.842;2023-03-14T21:36:15;4.00;99.90
45849;DHT22;31567;54.600;9.842;2023-03-14T21:39:55;4.10;99.90
45849;DHT22;31567;54.600;9.842;2023-03-14T21:43:34;4.10;99.90
45849;DHT22;31567;54.600;9.842;2023-03-14T21:47:15;4.10;99.90
45849;DHT22;31567;54.600;9.842;2023-03-14T21:50:54;4.10;99.90
45849;DHT22;31567;54.600;9.842;2023-03-14T21:54:34;4.10;99.90
45849;DHT22;31567;54.600;9.842;2023-03-14T21:58:14;4.10;99.90
45849;DHT22;31567;54.600;9.842;2023-03-14T22:01:53;4.10;99.90
45849;DHT22;31567;54.600;9.842;2023-03-14T22:05:34;4.10;99.90
45849;DHT22;31567;54.600;9.842;2023-03-14T22:09:13;4.00;99.90
45849;DHT22;31567;54.600;9.842;2023-03-14T22:12:53;4.00;99.90
45849;DHT22;31567;54.600;9.842;2023-03-14T22:16:34;3.90;99.90
45849;DHT22;31567;54.600;9.842;2023-03-14T22:20:14;3.90;99.90
45849;DHT22;31567;54.600;9.842;2023-03-14T22:23:54;3.80;99.90
45849;DHT22;31567;54.600;9.842;2023-03-14T22:27:33;3.70;99.90
45849;DHT22;31567;54.600;9.842;2023-03-14T22:31:13;3.80;99.90
45849;DHT22;31567;54.600;9.842;2023-03-14T22:34:52;3.70;99.90
45849;DHT22;31567;54.600;9.842;2023-03-14T22:38:32;3.70;99.90
45849;DHT22;31567;54.600;9.842;2023-03-14T22:42:11;3.70;99.90
45849;DHT22;31567;54.600;9.842;2023-03-14T22:45:58;3.70;99.90
45849;DHT22;31567;54.600;9.842;2023-03-14T22:49:37;3.60;99.90
45849;DHT22;31567;54.600;9.842;2023-03-14T22:53:17;3.70;99.90
45849;DHT22;31567;54.600;9.842;2023-03-14T22:56:57;3.60;99.90
45849;DHT22;31567;54.600;9.842;2023-03-14T23:00:37;3.60;99.90
45849;DHT22;31567;54.600;9.842;2023-03-14T23:04:16;3.60;99.90
45849;DHT22;31567;54.600;9.842;2023-03-14T23:07:56;3.60;99.90
45849;DHT22;31567;54.600;9.842;2023-03-14T23:11:36;3.50;99.90
45849;DHT22;31567;54.600;9.842;2023-03-14T23:15:16;3.60;99.90
45849;DHT22;31567;54.600;9.842;2023-03-14T23:18:55;3.60;99.90
45849;DHT22;31567;54.600;9.842;2023-03-14T23:22:35;3.60;99.90
45849;DHT22;31567;54.600;9.842;2023-03-14T23:26:17;3.60;99.90
45849;DHT22;31567;54.600;9.842;2023-03-14T23:29:57;3.60;99.90
45849;DHT22;31567;54.600;9.842;2023-03-14T23:33:37;3.70;99.90
45849;DHT22;31567;54.600;9.842;2023-03-14T23:37:16;3.70;99.90
45849;DHT22;31567;54.600;9.842;2023-03-14T23:40:58;3.70;99.90
45849;DHT22;31567;54.600;9.842;2023-03-14T23:44:37;3.70;99.90
45849;DHT22;31567;54.600;9.842;2023-03-14T23:48:24;3.80;99.90
45849;DHT22;31567;54.600;9.842;2023-03-14T23:52:04;3.70;99.90
45849;DHT22;31567;54.600;9.842;2023-03-14T23:55:43;3.80;99.90
45849;DHT22;31567;54.600;9.842;2023-03-14T23:59:23;3.80;99.90
